Time;durP1;ratioP1;P1;durP2;ratioP2;P2;SDS_P1;SDS_P2;PMS_P1;PMS_P2;Temp;Humidity;BMP_temperature;BMP_pressure;BME280_temperature;BME280_humidity;BME280_pressure;Samples;Min_cycle;Max_cycle;Signal;HPM_P1;HPM_P2
2021/04/10 00:02:07;;;;;;;43.38;25.27;;;8.50;99.90;;;;;;5052516;28;20020;-58
2021/04/10 00:04:32;;;;;;;54.20;25.77;;;8.50;99.90;;;;;;5058765;28;20112;-58
2021/04/10 00:06:58;;;;;;;48.00;25.60;;;8.40;99.90;;;;;;5047634;28;20108;-57
2021/04/10 00:09:23;;;;;;;54.15;28.27;;;8.40;99.90;;;;;;5049451;28;20491;-58
2021/04/10 00:11:49;;;;;;;53.47;28.40;;;8.40;99.90;;;;;;5049508;28;20036;-55
2021/04/10 00:14:16;;;;;;;53.47;29.30;;;8.40;99.90;;;;;;5061199;28;20017;-57
2021/04/10 00:16:42;;;;;;;47.13;27.08;;;8.40;99.90;;;;;;5047512;28;20056;-56
2021/04/10 00:19:07;;;;;;;55.92;30.58;;;8.40;99.90;;;;;;5043642;28;20471;-55
2021/04/10 00:21:33;;;;;;;62.67;30.13;;;8.40;99.90;;;;;;5054187;28;20040;-57
2021/04/10 00:23:59;;;;;;;56.58;29.52;;;8.40;99.90;;;;;;5058006;28;20479;-57
2021/04/10 00:26:24;;;;;;;56.63;30.33;;;8.40;99.90;;;;;;5050107;28;20083;-57
2021/04/10 00:28:50;;;;;;;57.17;28.77;;;8.40;99.90;;;;;;5055228;28;20068;-58
2021/04/10 00:31:16;;;;;;;49.20;28.10;;;8.40;99.90;;;;;;5045189;28;20029;-58
2021/04/10 00:33:42;;;;;;;50.70;27.90;;;8.40;99.90;;;;;;5060627;28;20486;-58
2021/04/10 00:36:09;;;;;;;49.15;27.00;;;8.40;99.90;;;;;;5052417;28;20029;-58
2021/04/10 00:38:37;;;;;;;53.00;27.45;;;8.50;99.90;;;;;;5034209;28;20040;-56
2021/04/10 00:41:06;;;;;;;56.67;29.25;;;8.50;99.90;;;;;;5058964;28;20390;-58
2021/04/10 00:43:32;;;;;;;53.85;28.70;;;8.50;99.90;;;;;;5062656;28;20407;-54
2021/04/10 00:45:58;;;;;;;51.80;29.17;;;8.50;99.90;;;;;;5056307;28;20031;-56
2021/04/10 00:48:23;;;;;;;51.65;27.05;;;8.50;99.90;;;;;;5057368;28;20016;-57
2021/04/10 00:50:51;;;;;;;47.70;26.02;;;8.50;99.90;;;;;;5049877;28;20025;-57
2021/04/10 00:53:18;;;;;;;44.70;25.48;;;8.60;99.90;;;;;;5057198;28;20029;-54
2021/04/10 00:55:46;;;;;;;46.22;27.02;;;8.60;99.90;;;;;;5048242;28;20021;-55
2021/04/10 00:58:12;;;;;;;54.10;29.33;;;8.50;99.90;;;;;;5052697;28;20041;-54
2021/04/10 01:00:38;;;;;;;56.72;29.95;;;8.50;99.90;;;;;;5051427;28;20548;-56
2021/04/10 01:03:04;;;;;;;60.25;30.13;;;8.30;99.90;;;;;;5055823;28;20152;-58
2021/04/10 01:05:30;;;;;;;62.28;31.50;;;8.30;99.90;;;;;;5053946;28;20137;-56
2021/04/10 01:07:55;;;;;;;52.13;29.73;;;8.30;99.90;;;;;;5056731;28;20025;-54
2021/04/10 01:10:21;;;;;;;59.40;30.23;;;8.30;99.90;;;;;;5054142;28;20043;-57
2021/04/10 01:12:50;;;;;;;63.30;31.40;;;8.30;99.90;;;;;;5055579;28;20036;-56
2021/04/10 01:15:26;;;;;;;54.00;30.60;;;8.30;99.90;;;;;;5053733;28;20043;-58
2021/04/10 01:18:23;;;;;;;64.75;31.08;;;8.40;99.90;;;;;;5057167;28;20409;-57
2021/04/10 01:21:08;;;;;;;51.55;30.30;;;8.40;99.90;;;;;;5028491;28;20561;-58
2021/04/10 01:24:04;;;;;;;65.55;32.22;;;8.30;99.90;;;;;;5056750;28;20033;-57
2021/04/10 01:27:04;;;;;;;64.15;33.67;;;8.30;99.90;;;;;;5045356;28;20045;-57
2021/04/10 01:29:35;;;;;;;56.72;30.75;;;8.30;99.90;;;;;;5047898;28;20024;-53
2021/04/10 01:32:02;;;;;;;58.47;35.42;;;8.30;99.90;;;;;;5048800;28;20029;-57
2021/04/10 01:34:29;;;;;;;60.40;33.72;;;8.20;99.90;;;;;;5059769;28;20424;-54
2021/04/10 01:37:01;;;;;;;61.53;34.60;;;8.30;99.90;;;;;;5047139;28;20035;-57
2021/04/10 01:39:28;;;;;;;64.50;33.50;;;8.20;99.90;;;;;;5053901;28;20016;-56
2021/04/10 01:41:54;;;;;;;61.75;34.55;;;8.20;99.90;;;;;;5052738;28;20514;-56
2021/04/10 01:44:22;;;;;;;53.70;32.53;;;8.20;99.90;;;;;;5052184;28;20029;-57
2021/04/10 01:46:49;;;;;;;72.35;34.38;;;8.20;99.90;;;;;;5045159;28;20028;-58
2021/04/10 01:49:14;;;;;;;63.33;32.95;;;8.20;99.90;;;;;;5056629;28;20020;-56
2021/04/10 01:51:42;;;;;;;60.97;33.20;;;8.20;99.90;;;;;;5046342;28;20036;-57
2021/04/10 01:54:08;;;;;;;61.25;34.63;;;8.30;99.90;;;;;;5062510;28;20052;-57
2021/04/10 01:56:38;;;;;;;59.33;32.88;;;8.20;99.90;;;;;;5052603;28;20082;-58
2021/04/10 01:59:05;;;;;;;67.65;34.30;;;8.30;99.90;;;;;;5043909;28;20107;-54
2021/04/10 02:01:31;;;;;;;66.82;34.22;;;8.30;99.90;;;;;;5053650;28;20044;-58
2021/04/10 02:03:57;;;;;;;64.22;36.17;;;8.20;99.90;;;;;;5059818;28;20481;-57
2021/04/10 02:06:24;;;;;;;64.25;34.45;;;8.20;99.90;;;;;;5051526;28;20117;-57
2021/04/10 02:08:53;;;;;;;66.95;35.28;;;8.20;99.90;;;;;;5058610;28;20028;-56
2021/04/10 02:11:20;;;;;;;63.00;36.40;;;8.20;99.90;;;;;;5052846;28;20055;-58
2021/04/10 02:13:47;;;;;;;58.60;34.70;;;8.20;99.90;;;;;;5057308;28;20483;-56
2021/04/10 02:16:13;;;;;;;68.35;35.88;;;8.20;99.90;;;;;;5052966;28;20028;-54
2021/04/10 02:18:38;;;;;;;69.75;37.10;;;8.10;99.90;;;;;;5060058;28;20021;-54
2021/04/10 02:21:10;;;;;;;70.30;36.83;;;8.00;99.90;;;;;;5048334;28;20043;-56
2021/04/10 02:23:40;;;;;;;71.05;37.65;;;8.00;99.90;;;;;;5060985;28;20487;-57
2021/04/10 02:26:07;;;;;;;59.20;35.95;;;8.00;99.90;;;;;;5047623;28;20029;-56
2021/04/10 02:28:33;;;;;;;62.22;36.42;;;8.00;99.90;;;;;;5060694;28;20029;-55
2021/04/10 02:31:01;;;;;;;66.38;35.92;;;8.10;99.90;;;;;;5048883;28;20040;-57
2021/04/10 02:33:33;;;;;;;70.25;38.63;;;8.00;99.90;;;;;;5055997;28;20020;-58
2021/04/10 02:36:00;;;;;;;73.25;37.75;;;8.00;99.90;;;;;;5054201;28;20032;-58
2021/04/10 02:38:29;;;;;;;72.80;39.63;;;8.00;99.90;;;;;;5058984;28;20391;-57
2021/04/10 02:41:04;;;;;;;82.95;40.40;;;8.00;99.90;;;;;;5051925;28;20032;-56
2021/04/10 02:43:30;;;;;;;;;;;8.00;99.90;;;;;;5058520;28;20037;-58
2021/04/10 02:46:00;;;;;;;84.50;42.40;;;8.00;99.90;;;;;;5048044;28;20420;-58
2021/04/10 02:48:38;;;;;;;76.75;41.42;;;7.90;99.90;;;;;;5053615;28;20051;-56
2021/04/10 02:51:05;;;;;;;82.03;42.38;;;8.00;99.90;;;;;;5049536;28;20025;-56
2021/04/10 02:53:36;;;;;;;82.25;43.53;;;7.90;99.90;;;;;;5056639;28;20550;-57
2021/04/10 02:56:03;;;;;;;90.53;45.17;;;7.90;99.90;;;;;;5058965;28;20560;-58
2021/04/10 02:58:31;;;;;;;88.40;45.08;;;7.90;99.90;;;;;;5056033;28;20463;-58
2021/04/10 03:00:58;;;;;;;89.45;46.78;;;7.90;99.90;;;;;;5053703;28;20025;-58
2021/04/10 03:03:24;;;;;;;91.53;46.47;;;7.90;99.90;;;;;;5045696;28;20029;-56
2021/04/10 03:05:51;;;;;;;90.65;46.60;;;7.80;99.90;;;;;;5056801;28;20024;-58
2021/04/10 03:08:19;;;;;;;91.22;47.17;;;7.80;99.90;;;;;;5049383;28;20495;-57
2021/04/10 03:10:47;;;;;;;96.63;47.70;;;7.80;99.90;;;;;;5051292;28;20482;-55
2021/04/10 03:13:14;;;;;;;90.72;47.10;;;7.80;99.90;;;;;;5054468;28;20116;-58
2021/04/10 03:15:40;;;;;;;98.15;49.65;;;7.80;99.90;;;;;;5050398;28;20078;-58
2021/04/10 03:18:08;;;;;;;96.18;50.33;;;7.80;99.90;;;;;;5051686;28;20050;-54
2021/04/10 03:20:33;;;;;;;97.07;50.28;;;7.80;99.90;;;;;;5056387;28;20017;-57
2021/04/10 03:22:59;;;;;;;95.57;48.72;;;7.80;99.90;;;;;;5052260;28;20375;-56
2021/04/10 03:25:25;;;;;;;93.78;47.80;;;7.70;99.90;;;;;;5050187;28;20477;-57
2021/04/10 03:27:51;;;;;;;98.85;50.80;;;7.80;99.90;;;;;;5051954;28;20608;-57
2021/04/10 03:30:17;;;;;;;105.95;51.50;;;7.80;99.90;;;;;;5052251;28;20028;-57
2021/04/10 03:32:43;;;;;;;104.57;50.80;;;7.70;99.90;;;;;;5049219;28;20025;-54
2021/04/10 03:35:10;;;;;;;102.43;50.08;;;7.80;99.90;;;;;;5058868;28;20056;-55
2021/04/10 03:37:36;;;;;;;101.70;51.35;;;7.70;99.90;;;;;;5048427;28;20041;-55
2021/04/10 03:40:03;;;;;;;104.72;52.60;;;7.70;99.90;;;;;;5057686;28;20035;-57
2021/04/10 03:42:46;;;;;;;105.95;51.35;;;7.70;99.90;;;;;;5048862;28;20040;-57
2021/04/10 03:45:18;;;;;;;103.05;49.92;;;7.70;99.90;;;;;;5046102;28;20808;-57
2021/04/10 03:47:44;;;;;;;106.10;51.85;;;7.70;99.90;;;;;;5049397;28;20028;-56
2021/04/10 03:50:11;;;;;;;102.88;51.55;;;7.60;99.90;;;;;;5056597;28;20025;-57
2021/04/10 03:52:36;;;;;;;104.70;51.88;;;7.60;99.90;;;;;;5043838;28;20398;-56
2021/04/10 03:55:03;;;;;;;108.80;52.40;;;7.70;99.90;;;;;;5058348;28;20024;-57
2021/04/10 03:57:31;;;;;;;101.88;50.63;;;7.70;99.90;;;;;;5055363;28;20028;-54
2021/04/10 03:59:56;;;;;;;99.75;49.60;;;7.70;99.90;;;;;;5055085;28;20030;-55
2021/04/10 04:02:22;;;;;;;96.50;49.83;;;7.70;99.90;;;;;;5056419;28;20024;-56
2021/04/10 04:04:47;;;;;;;95.38;48.85;;;7.70;99.90;;;;;;5059889;28;20263;-58
2021/04/10 04:07:13;;;;;;;105.03;49.53;;;7.70;99.90;;;;;;5051963;28;20119;-56
2021/04/10 04:09:39;;;;;;;93.03;47.00;;;7.70;99.90;;;;;;5058084;28;20071;-56
2021/04/10 04:12:05;;;;;;;93.97;47.47;;;7.60;99.90;;;;;;5051754;28;20048;-57
2021/04/10 04:14:30;;;;;;;96.30;48.78;;;7.60;99.90;;;;;;5059424;28;20501;-57
2021/04/10 04:16:56;;;;;;;100.72;51.65;;;7.50;99.90;;;;;;5053728;28;20037;-58
2021/04/10 04:19:21;;;;;;;94.72;49.35;;;7.50;99.90;;;;;;5059518;28;20502;-57
2021/04/10 04:21:47;;;;;;;105.93;49.00;;;7.50;99.90;;;;;;5053345;28;20028;-56
2021/04/10 04:24:13;;;;;;;104.82;51.70;;;7.40;99.90;;;;;;5062386;28;20025;-55
2021/04/10 04:26:38;;;;;;;105.28;53.35;;;7.40;99.90;;;;;;5041912;28;20057;-57
2021/04/10 04:29:04;;;;;;;108.05;53.45;;;7.40;99.90;;;;;;5048905;28;20025;-54
2021/04/10 04:31:30;;;;;;;102.93;52.80;;;7.40;99.90;;;;;;5048179;28;20028;-55
2021/04/10 04:33:55;;;;;;;97.43;51.38;;;7.50;99.90;;;;;;5046098;28;20021;-58
2021/04/10 04:36:21;;;;;;;94.05;52.30;;;7.50;99.90;;;;;;5043214;28;20090;-55
2021/04/10 04:38:47;;;;;;;100.65;52.38;;;7.50;99.90;;;;;;5045409;28;20471;-56
2021/04/10 04:41:12;;;;;;;99.50;50.33;;;7.40;99.90;;;;;;5044373;28;20491;-56
2021/04/10 04:43:38;;;;;;;98.38;49.75;;;7.40;99.90;;;;;;5043627;28;20105;-55
2021/04/10 04:46:04;;;;;;;97.63;50.15;;;7.40;99.90;;;;;;5044314;28;20160;-57
2021/04/10 04:48:29;;;;;;;90.90;47.55;;;7.40;99.90;;;;;;5043311;28;20032;-56
2021/04/10 04:50:55;;;;;;;90.55;48.70;;;7.40;99.90;;;;;;5050399;28;20029;-57
2021/04/10 04:53:21;;;;;;;100.05;47.28;;;7.30;99.90;;;;;;5043597;28;20040;-58
2021/04/10 04:55:47;;;;;;;93.38;47.63;;;7.30;99.90;;;;;;5045306;28;20052;-56
2021/04/10 04:58:13;;;;;;;93.07;47.20;;;7.20;99.90;;;;;;5040223;28;20071;-56
2021/04/10 05:00:38;;;;;;;99.68;47.17;;;7.20;99.90;;;;;;5046830;28;20387;-56
2021/04/10 05:03:04;;;;;;;89.93;46.83;;;7.20;99.90;;;;;;5051590;28;20437;-58
2021/04/10 05:05:30;;;;;;;86.53;46.67;;;7.20;99.90;;;;;;5054249;28;20025;-57
2021/04/10 05:07:55;;;;;;;96.18;46.97;;;7.10;99.90;;;;;;5052975;28;20029;-55
2021/04/10 05:10:21;;;;;;;93.45;46.22;;;7.10;99.90;;;;;;5049333;28;20029;-55
2021/04/10 05:12:47;;;;;;;99.13;48.70;;;7.10;99.90;;;;;;5051812;28;20029;-58
2021/04/10 05:15:13;;;;;;;94.00;46.85;;;7.10;99.90;;;;;;5058050;28;20414;-57
2021/04/10 05:17:38;;;;;;;82.18;44.65;;;7.10;99.90;;;;;;5050981;28;20108;-58
2021/04/10 05:20:05;;;;;;;80.20;44.17;;;7.10;99.90;;;;;;5055956;28;20108;-58
2021/04/10 05:22:30;;;;;;;82.35;43.30;;;7.20;99.90;;;;;;5052922;28;20394;-58
2021/04/10 05:24:56;;;;;;;84.78;44.55;;;7.30;99.90;;;;;;5060260;28;20044;-56
2021/04/10 05:27:21;;;;;;;89.65;46.55;;;7.30;99.90;;;;;;5053863;28;20422;-55
2021/04/10 05:29:47;;;;;;;89.93;45.42;;;7.30;99.90;;;;;;5057944;28;20487;-58
2021/04/10 05:32:12;;;;;;;95.90;47.55;;;7.30;99.90;;;;;;5032198;28;20032;-55
2021/04/10 05:34:40;;;;;;;85.32;44.92;;;7.20;99.90;;;;;;5057478;28;20013;-57
2021/04/10 05:37:05;;;;;;;93.15;44.97;;;7.20;99.90;;;;;;5049381;28;20068;-57
2021/04/10 05:39:31;;;;;;;95.38;46.65;;;7.10;99.90;;;;;;5061056;28;20490;-56
2021/04/10 05:41:56;;;;;;;89.00;45.10;;;7.10;99.90;;;;;;5053703;28;20048;-55
2021/04/10 05:44:22;;;;;;;91.82;46.35;;;7.00;99.90;;;;;;5056630;28;20067;-56
2021/04/10 05:46:47;;;;;;;95.72;47.67;;;7.00;99.90;;;;;;5048321;28;20079;-55
2021/04/10 05:49:13;;;;;;;104.80;49.80;;;7.00;99.90;;;;;;5063089;28;20020;-53
2021/04/10 05:51:38;;;;;;;103.45;48.92;;;7.10;99.90;;;;;;5050373;28;20033;-57
2021/04/10 05:54:04;;;;;;;96.50;47.55;;;7.10;99.90;;;;;;5044150;28;20024;-58
2021/04/10 05:56:30;;;;;;;109.82;52.20;;;7.20;99.90;;;;;;5051358;28;20021;-57
2021/04/10 05:58:55;;;;;;;97.82;49.38;;;7.20;99.90;;;;;;5060844;28;20107;-55
2021/04/10 06:01:21;;;;;;;111.93;51.08;;;7.30;99.90;;;;;;5056570;28;20032;-55
2021/04/10 06:03:46;;;;;;;109.05;52.85;;;7.30;99.90;;;;;;5061819;28;20122;-56
2021/04/10 06:06:12;;;;;;;115.97;49.80;;;7.30;99.90;;;;;;5054832;28;20037;-57
2021/04/10 06:08:38;;;;;;;126.10;56.25;;;7.30;99.90;;;;;;5060774;28;20029;-57
2021/04/10 06:11:04;;;;;;;117.72;55.38;;;7.40;99.90;;;;;;5052535;28;20567;-57
2021/04/10 06:13:29;;;;;;;122.22;55.55;;;7.40;99.90;;;;;;5054790;28;20035;-57
2021/04/10 06:15:55;;;;;;;124.13;58.00;;;7.50;99.90;;;;;;5050185;28;20025;-58
2021/04/10 06:18:20;;;;;;;119.40;57.33;;;7.50;99.90;;;;;;5057773;28;20047;-57
2021/04/10 06:20:46;;;;;;;124.05;58.05;;;7.60;99.90;;;;;;5057848;28;20024;-58
2021/04/10 06:23:11;;;;;;;114.20;55.70;;;7.70;99.90;;;;;;5056388;28;20418;-58
2021/04/10 06:25:37;;;;;;;117.82;54.80;;;7.70;99.90;;;;;;5047548;28;20641;-54
2021/04/10 06:28:04;;;;;;;116.57;55.05;;;7.80;99.90;;;;;;5059500;28;20454;-54
2021/04/10 06:30:30;;;;;;;109.88;52.53;;;7.80;99.90;;;;;;5056202;28;20036;-56
2021/04/10 06:32:56;;;;;;;115.75;55.00;;;7.90;99.90;;;;;;5054917;28;20033;-57
2021/04/10 06:35:21;;;;;;;118.88;56.75;;;8.00;99.90;;;;;;5055925;28;20043;-57
2021/04/10 06:37:47;;;;;;;117.25;54.92;;;8.00;99.90;;;;;;5053301;28;20025;-56
2021/04/10 06:40:13;;;;;;;135.30;59.65;;;8.10;99.90;;;;;;5056571;28;20117;-58
2021/04/10 06:42:41;;;;;;;126.90;58.50;;;8.20;99.90;;;;;;5053094;28;20017;-60
2021/04/10 06:45:07;;;;;;;119.60;58.28;;;8.30;99.90;;;;;;5059464;28;20036;-58
2021/04/10 06:47:34;;;;;;;112.75;57.67;;;8.40;99.90;;;;;;5056076;28;20129;-59
2021/04/10 06:50:01;;;;;;;122.82;58.50;;;8.50;99.90;;;;;;5054063;28;20036;-59
2021/04/10 06:52:27;;;;;;;118.00;56.80;;;8.60;99.90;;;;;;5053592;28;20494;-60
2021/04/10 06:55:06;;;;;;;120.68;57.15;;;8.70;99.90;;;;;;5056848;28;20029;-58
2021/04/10 06:57:39;;;;;;;109.75;56.20;;;8.80;99.90;;;;;;5059217;28;20047;-60
2021/04/10 07:00:09;;;;;;;111.10;55.00;;;8.90;99.90;;;;;;5050943;28;20451;-59
2021/04/10 07:02:37;;;;;;;95.40;50.83;;;9.00;99.90;;;;;;5048639;28;20053;-59
2021/04/10 07:05:03;;;;;;;98.45;51.90;;;9.00;99.90;;;;;;5065335;28;20032;-57
2021/04/10 07:07:28;;;;;;;99.53;48.80;;;9.10;99.90;;;;;;5050318;28;20033;-61
2021/04/10 07:09:54;;;;;;;89.82;48.58;;;9.10;99.90;;;;;;5059181;28;20032;-58
2021/04/10 07:12:21;;;;;;;83.28;47.38;;;9.20;99.90;;;;;;5053185;28;20040;-57
2021/04/10 07:14:47;;;;;;;75.72;43.05;;;9.20;99.90;;;;;;5056386;28;20033;-54
2021/04/10 07:17:13;;;;;;;78.60;45.40;;;9.20;99.90;;;;;;5044281;28;20074;-58
2021/04/10 07:19:39;;;;;;;71.20;42.47;;;9.30;99.90;;;;;;5044362;28;20383;-60
2021/04/10 07:22:11;;;;;;;72.43;41.47;;;9.40;99.90;;;;;;5041965;28;20024;-60
2021/04/10 07:24:39;;;;;;;66.97;39.30;;;9.40;99.90;;;;;;5054951;28;20502;-60
2021/04/10 07:27:07;;;;;;;72.70;39.13;;;9.40;99.90;;;;;;5047877;28;20032;-55
2021/04/10 07:29:33;;;;;;;72.18;38.83;;;9.50;99.90;;;;;;5057349;28;20052;-56
2021/04/10 07:32:00;;;;;;;69.18;39.40;;;9.50;99.90;;;;;;5053600;28;20036;-56
2021/04/10 07:34:28;;;;;;;67.22;38.55;;;9.60;99.90;;;;;;5054092;28;20039;-57
2021/04/10 07:37:01;;;;;;;58.08;35.22;;;9.60;99.90;;;;;;5051409;28;20037;-57
2021/04/10 07:39:27;;;;;;;57.33;36.28;;;9.70;99.90;;;;;;5056526;28;20048;-59
2021/04/10 07:42:04;;;;;;;51.50;32.63;;;9.80;99.90;;;;;;5052289;28;20025;-59
2021/04/10 07:44:40;;;;;;;52.80;32.40;;;9.80;99.90;;;;;;5047903;28;20037;-57
2021/04/10 07:47:07;;;;;;;62.25;33.67;;;9.90;99.90;;;;;;5051240;28;20162;-59
2021/04/10 07:49:34;;;;;;;58.33;32.13;;;9.90;99.90;;;;;;5055896;28;20569;-57
2021/04/10 07:52:04;;;;;;;55.33;31.48;;;9.90;99.90;;;;;;5055836;28;20111;-58
2021/04/10 07:54:41;;;;;;;55.92;34.20;;;10.00;99.90;;;;;;5053065;28;20037;-55
2021/04/10 07:57:11;;;;;;;59.50;35.33;;;10.10;99.90;;;;;;5055227;28;20052;-57
2021/04/10 07:59:45;;;;;;;59.92;33.55;;;10.00;99.90;;;;;;5053246;28;20104;-56
2021/04/10 08:02:13;;;;;;;53.65;33.55;;;10.00;99.90;;;;;;5047097;28;20017;-57
2021/04/10 08:04:39;;;;;;;58.42;34.03;;;10.00;99.90;;;;;;5049565;28;20056;-55
2021/04/10 08:07:06;;;;;;;53.40;32.60;;;10.10;99.90;;;;;;5044022;28;20107;-53
2021/04/10 08:09:39;;;;;;;54.22;33.40;;;10.10;99.90;;;;;;5042953;28;20025;-57
2021/04/10 08:12:08;;;;;;;52.65;31.98;;;10.20;99.90;;;;;;5052889;28;20075;-55
2021/04/10 08:14:45;;;;;;;54.60;32.47;;;10.20;99.90;;;;;;5046513;28;20028;-57
2021/04/10 08:17:12;;;;;;;52.28;31.27;;;10.30;99.90;;;;;;5044768;28;20490;-54
2021/04/10 08:19:39;;;;;;;52.25;31.55;;;10.30;99.90;;;;;;5038668;28;20017;-58
2021/04/10 08:22:06;;;;;;;49.28;30.92;;;10.40;99.90;;;;;;5042641;28;20497;-58
2021/04/10 08:24:43;;;;;;;46.72;28.42;;;10.50;99.90;;;;;;5043885;28;20025;-56
2021/04/10 08:27:14;;;;;;;43.95;26.95;;;10.50;99.90;;;;;;5044582;28;20024;-57
2021/04/10 08:29:42;;;;;;;44.22;26.67;;;10.60;99.90;;;;;;5041852;28;20038;-57
2021/04/10 08:32:09;;;;;;;43.28;28.00;;;10.60;99.90;;;;;;5042648;28;20021;-56
2021/04/10 08:34:35;;;;;;;38.95;24.63;;;10.70;99.90;;;;;;5040656;28;20029;-56
2021/04/10 08:37:03;;;;;;;42.58;27.13;;;10.70;99.90;;;;;;5040178;28;20049;-58
2021/04/10 08:39:33;;;;;;;33.92;20.38;;;10.80;99.90;;;;;;5042941;28;20017;-59
2021/04/10 08:42:01;;;;;;;32.80;20.63;;;10.80;99.90;;;;;;5047109;28;20028;-58
2021/04/10 08:44:35;;;;;;;31.38;19.98;;;10.80;99.90;;;;;;5045213;28;20037;-58
2021/04/10 08:47:02;;;;;;;32.58;20.17;;;10.90;99.90;;;;;;5054486;28;20554;-58
2021/04/10 08:49:39;;;;;;;30.05;21.35;;;11.00;99.90;;;;;;5035347;28;20036;-57
2021/04/10 08:52:07;;;;;;;27.98;18.85;;;11.00;99.90;;;;;;5038638;28;20028;-57
2021/04/10 08:54:36;;;;;;;28.35;19.50;;;11.10;99.90;;;;;;5044472;28;20156;-60
2021/04/10 08:57:20;;;;;;;33.00;21.63;;;11.00;99.90;;;;;;5043335;28;20031;-61
2021/04/10 08:59:47;;;;;;;31.95;20.42;;;11.20;99.90;;;;;;5052346;28;20044;-60
2021/04/10 09:02:17;;;;;;;32.85;22.52;;;11.20;99.90;;;;;;5049076;28;20104;-60
2021/04/10 09:05:01;;;;;;;31.42;21.25;;;11.20;99.90;;;;;;5029947;28;20517;-61
2021/04/10 09:07:52;;;;;;;37.37;19.80;;;11.30;99.90;;;;;;5042674;28;20040;-60
2021/04/10 09:10:24;;;;;;;18.85;13.90;;;11.40;99.90;;;;;;5050377;28;20037;-60
2021/04/10 09:13:10;;;;;;;19.83;13.07;;;11.30;99.90;;;;;;5048025;28;20482;-61
2021/04/10 09:15:36;;;;;;;23.48;14.70;;;11.30;99.90;;;;;;5038538;28;20049;-60
2021/04/10 09:18:07;;;;;;;20.98;11.65;;;11.30;99.90;;;;;;5047861;28;20060;-60
2021/04/10 09:20:50;;;;;;;16.70;11.15;;;11.40;99.90;;;;;;5044155;28;20483;-58
2021/04/10 09:23:22;;;;;;;25.83;14.82;;;11.40;99.90;;;;;;5043997;28;20024;-59
2021/04/10 09:26:11;;;;;;;27.02;18.35;;;11.50;99.90;;;;;;5053209;28;20036;-61
2021/04/10 09:28:55;;;;;;;33.22;20.00;;;11.60;99.90;;;;;;5047539;28;20056;-59
2021/04/10 09:31:34;;;;;;;42.72;25.67;;;11.60;99.90;;;;;;5043402;28;20436;-57
2021/04/10 09:34:00;;;;;;;42.10;26.67;;;11.70;99.90;;;;;;5047475;28;20044;-60
2021/04/10 09:36:45;;;;;;;40.47;25.40;;;11.70;99.90;;;;;;5050800;28;20095;-58
2021/04/10 09:39:11;;;;;;;36.60;24.08;;;11.70;99.90;;;;;;5046625;28;20028;-59
2021/04/10 09:41:49;;;;;;;38.88;24.85;;;11.70;99.90;;;;;;5046103;28;20024;-57
2021/04/10 09:44:15;;;;;;;42.63;27.02;;;11.70;99.90;;;;;;5047967;28;20451;-59
2021/04/10 09:46:52;;;;;;;32.83;22.67;;;11.70;99.90;;;;;;5046620;28;20052;-57
2021/04/10 09:49:39;;;;;;;36.88;24.08;;;11.60;99.90;;;;;;5040558;28;20036;-59
2021/04/10 09:52:06;;;;;;;36.88;25.25;;;11.50;99.90;;;;;;5039462;28;20033;-59
2021/04/10 09:54:32;;;;;;;39.00;25.08;;;11.40;99.90;;;;;;5042875;28;20030;-59
2021/04/10 09:56:58;;;;;;;36.60;24.70;;;11.20;99.90;;;;;;5044976;28;20048;-60
2021/04/10 09:59:24;;;;;;;36.03;24.35;;;11.20;99.90;;;;;;5048440;28;20022;-58
2021/04/10 10:01:50;;;;;;;40.78;26.40;;;11.00;99.90;;;;;;5049020;28;20143;-61
2021/04/10 10:04:16;;;;;;;41.03;24.80;;;11.00;99.90;;;;;;5043249;28;20033;-62
2021/04/10 10:06:46;;;;;;;37.40;25.33;;;11.00;99.90;;;;;;5041334;28;20029;-58
2021/04/10 10:09:28;;;;;;;40.30;25.85;;;11.00;99.90;;;;;;5040967;28;20555;-58
2021/04/10 10:11:58;;;;;;;41.97;26.40;;;11.00;99.90;;;;;;5044056;28;20123;-58
2021/04/10 10:14:24;;;;;;;41.50;25.90;;;11.00;99.90;;;;;;5039520;28;20020;-57
2021/04/10 10:16:50;;;;;;;36.38;23.15;;;11.00;99.90;;;;;;5041813;28;20387;-58
2021/04/10 10:19:19;;;;;;;37.85;23.58;;;11.00;99.90;;;;;;5041914;28;20029;-55
2021/04/10 10:21:46;;;;;;;37.03;23.40;;;11.10;99.90;;;;;;5041674;28;20057;-60
2021/04/10 10:24:11;;;;;;;32.95;22.15;;;11.10;99.90;;;;;;5040787;28;20117;-62
2021/04/10 10:26:42;;;;;;;39.50;24.38;;;11.10;99.90;;;;;;5042812;28;20145;-59
2021/04/10 10:29:10;;;;;;;33.88;22.55;;;11.10;99.90;;;;;;5038986;28;20030;-60
2021/04/10 10:31:53;;;;;;;38.90;22.98;;;11.10;99.90;;;;;;5043812;28;20112;-58
2021/04/10 10:34:23;;;;;;;41.42;22.00;;;11.00;99.90;;;;;;5032983;28;20063;-58
2021/04/10 10:36:51;;;;;;;31.27;21.30;;;11.00;99.90;;;;;;5042387;28;20469;-58
2021/04/10 10:39:32;;;;;;;33.30;22.48;;;10.90;99.90;;;;;;5039686;28;20052;-60
2021/04/10 10:42:00;;;;;;;36.25;23.58;;;10.70;99.90;;;;;;5039029;28;20026;-62
2021/04/10 10:44:26;;;;;;;39.03;24.48;;;10.50;99.90;;;;;;5036160;28;20036;-58
2021/04/10 10:47:07;;;;;;;41.20;26.45;;;10.40;99.90;;;;;;5038984;28;20048;-59
2021/04/10 10:49:33;;;;;;;38.83;26.08;;;10.40;99.90;;;;;;5040978;28;20033;-59
2021/04/10 10:51:59;;;;;;;39.92;26.90;;;10.40;99.90;;;;;;5038454;28;20406;-59
2021/04/10 10:54:30;;;;;;;36.65;24.75;;;10.30;99.90;;;;;;5040199;28;20037;-60
2021/04/10 10:56:56;;;;;;;49.05;28.40;;;10.30;99.90;;;;;;5034717;28;20048;-60
2021/04/10 10:59:26;;;;;;;41.72;26.17;;;10.20;99.90;;;;;;5042390;28;20057;-60
2021/04/10 11:01:52;;;;;;;44.38;28.42;;;10.30;99.90;;;;;;5041733;28;20040;-61
2021/04/10 11:04:23;;;;;;;41.95;26.08;;;10.20;99.90;;;;;;5040045;28;20029;-58
2021/04/10 11:06:50;;;;;;;44.67;27.02;;;10.20;99.90;;;;;;5044676;28;20024;-60
2021/04/10 11:09:22;;;;;;;43.13;26.77;;;10.20;99.90;;;;;;5039697;28;20032;-61
2021/04/10 11:11:49;;;;;;;38.30;25.48;;;10.30;99.90;;;;;;5041972;28;20068;-60
2021/04/10 11:14:30;;;;;;;44.78;26.70;;;10.40;99.90;;;;;;5046777;28;20024;-57
2021/04/10 11:16:57;;;;;;;36.03;23.58;;;10.30;99.90;;;;;;5041528;28;20028;-56
2021/04/10 11:19:26;;;;;;;40.92;25.10;;;10.40;99.90;;;;;;5043579;28;20037;-57
2021/04/10 11:21:52;;;;;;;38.95;25.67;;;10.30;99.90;;;;;;5034179;28;20032;-60
2021/04/10 11:24:18;;;;;;;43.60;25.48;;;10.40;99.90;;;;;;5035719;28;20843;-59
2021/04/10 11:26:50;;;;;;;37.80;22.50;;;10.50;99.90;;;;;;5041456;28;20068;-60
2021/04/10 11:29:31;;;;;;;35.72;23.77;;;10.40;99.90;;;;;;5043432;28;20044;-61
2021/04/10 11:32:06;;;;;;;42.03;23.02;;;10.40;99.90;;;;;;5043547;28;20041;-56
2021/04/10 11:34:36;;;;;;;39.58;22.33;;;10.40;99.90;;;;;;5039354;28;20033;-56
2021/04/10 11:37:04;;;;;;;42.33;24.55;;;10.40;99.90;;;;;;5038038;28;20617;-60
2021/04/10 11:39:30;;;;;;;44.00;24.83;;;10.40;99.90;;;;;;5037205;28;20022;-59
2021/04/10 11:41:56;;;;;;;34.10;22.25;;;10.30;99.90;;;;;;5043123;28;20079;-56
2021/04/10 11:44:23;;;;;;;39.50;22.63;;;10.40;99.90;;;;;;5042014;28;20111;-59
2021/04/10 11:46:59;;;;;;;39.25;23.65;;;10.30;99.90;;;;;;5039979;28;20025;-59
2021/04/10 11:49:28;;;;;;;46.80;23.65;;;10.30;99.90;;;;;;5040127;28;20029;-57
2021/04/10 11:52:06;;;;;;;37.42;23.92;;;10.30;99.90;;;;;;5042460;28;20052;-57
2021/04/10 11:54:33;;;;;;;41.97;24.42;;;10.30;99.90;;;;;;5040465;28;21059;-58
2021/04/10 11:56:58;;;;;;;37.75;23.45;;;10.30;99.90;;;;;;5045026;28;20036;-58
2021/04/10 11:59:35;;;;;;;33.40;22.50;;;10.30;99.90;;;;;;5047953;28;20029;-58
2021/04/10 12:02:04;;;;;;;38.88;24.30;;;10.30;99.90;;;;;;5051404;28;20024;-56
2021/04/10 12:04:34;;;;;;;39.90;24.40;;;10.30;99.90;;;;;;5045498;28;20040;-59
2021/04/10 12:07:13;;;;;;;42.08;24.25;;;10.30;99.90;;;;;;5034532;28;20489;-60
2021/04/10 12:09:40;;;;;;;42.80;25.58;;;10.30;99.90;;;;;;5039844;28;20033;-58
2021/04/10 12:12:08;;;;;;;39.83;25.02;;;10.30;99.90;;;;;;5039665;28;20474;-59
2021/04/10 12:14:35;;;;;;;37.28;23.75;;;10.40;99.90;;;;;;5046906;28;20025;-54
2021/04/10 12:17:00;;;;;;;45.10;27.13;;;10.40;99.90;;;;;;5046428;28;20101;-57
2021/04/10 12:19:26;;;;;;;40.95;26.15;;;10.40;99.90;;;;;;5040086;28;21035;-58
2021/04/10 12:21:52;;;;;;;37.80;24.35;;;10.50;99.90;;;;;;5038367;28;20156;-57
2021/04/10 12:24:18;;;;;;;41.75;25.40;;;10.40;99.90;;;;;;5035843;28;20025;-58
2021/04/10 12:26:44;;;;;;;39.88;23.35;;;10.40;99.90;;;;;;5045980;28;20116;-54
2021/04/10 12:29:10;;;;;;;36.97;23.25;;;10.40;99.90;;;;;;5046660;28;20022;-58
2021/04/10 12:31:36;;;;;;;42.45;26.30;;;10.40;99.90;;;;;;5046146;28;20076;-58
2021/04/10 12:34:02;;;;;;;41.67;24.83;;;10.30;99.90;;;;;;5045074;28;20033;-59
2021/04/10 12:36:28;;;;;;;42.33;26.10;;;10.20;99.90;;;;;;5040067;28;20059;-58
2021/04/10 12:38:54;;;;;;;47.08;26.35;;;10.10;99.90;;;;;;5043762;28;20054;-58